createdAt,value
2022-12-26T00:04:49.675Z,9.23
2022-12-26T00:09:55.350Z,9.18
2022-12-26T00:14:59.483Z,9.32
2022-12-26T00:20:02.229Z,9.36
2022-12-26T00:25:05.650Z,9.39
2022-12-26T00:30:11.409Z,9.21
2022-12-26T00:35:14.200Z,9.08
2022-12-26T00:40:17.063Z,8.77
2022-12-26T00:45:21.228Z,8.99
2022-12-26T00:50:25.452Z,8.89
2022-12-26T00:55:29.953Z,9.12
2022-12-26T01:00:34.108Z,9.09
2022-12-26T01:05:37.431Z,8.98
2022-12-26T01:10:41.721Z,8.98
2022-12-26T01:15:50.725Z,9.01
2022-12-26T01:20:58.598Z,9.19
2022-12-26T01:26:18.611Z,9.26
2022-12-26T01:31:25.139Z,9.16
2022-12-26T01:36:27.970Z,8.73
2022-12-26T01:41:33.124Z,8.74
2022-12-26T01:46:40.832Z,8.86
2022-12-26T01:51:48.369Z,9.26
2022-12-26T01:56:51.538Z,9.24
2022-12-26T02:01:56.618Z,8.81
2022-12-26T02:07:00.992Z,8.87
2022-12-26T02:12:35.919Z,9.08
2022-12-26T02:17:33.933Z,9.00
2022-12-26T02:23:04.666Z,8.95
2022-12-26T02:28:50.314Z,8.94
2022-12-26T02:34:03.020Z,8.98
2022-12-26T02:39:44.268Z,9.12
2022-12-26T02:45:11.378Z,8.88
2022-12-26T02:50:43.080Z,8.84
2022-12-26T02:56:08.613Z,9.05
2022-12-26T03:01:38.984Z,9.08
2022-12-26T03:07:13.122Z,9.08
2022-12-26T03:13:02.980Z,8.97
2022-12-26T03:18:08.778Z,8.91
2022-12-26T03:23:16.794Z,8.86
2022-12-26T03:28:19.683Z,8.75
2022-12-26T03:33:44.605Z,8.75
2022-12-26T03:38:55.404Z,8.74
2022-12-26T03:44:27.488Z,8.48
2022-12-26T03:49:52.383Z,8.74
2022-12-26T03:55:19.761Z,8.72
2022-12-26T04:00:40.657Z,8.83
2022-12-26T04:06:05.409Z,8.78
2022-12-26T04:11:33.978Z,8.60
2022-12-26T04:16:58.008Z,8.53
2022-12-26T04:22:25.436Z,8.45
2022-12-26T04:27:50.598Z,8.59
2022-12-26T04:33:16.981Z,8.30
2022-12-26T04:38:41.520Z,8.84
2022-12-26T04:44:07.492Z,8.53
2022-12-26T04:49:30.024Z,8.62
2022-12-26T04:54:33.234Z,8.47
2022-12-26T04:59:37.423Z,8.57
2022-12-26T05:04:57.782Z,8.70
2022-12-26T05:10:00.661Z,8.63
2022-12-26T05:15:05.392Z,8.15
2022-12-26T05:20:26.765Z,8.39
2022-12-26T05:25:49.773Z,8.50
2022-12-26T05:30:54.271Z,8.40
2022-12-26T05:35:57.124Z,8.25
2022-12-26T05:41:00.998Z,8.22
2022-12-26T05:46:05.390Z,8.22
2022-12-26T05:51:08.275Z,8.20
2022-12-26T05:56:13.360Z,8.29
2022-12-26T06:01:19.512Z,8.10
2022-12-26T06:06:23.720Z,8.30
2022-12-26T06:11:27.889Z,8.21
2022-12-26T06:16:32.378Z,8.03
2022-12-26T06:21:35.340Z,8.28
2022-12-26T06:26:38.531Z,8.24
2022-12-26T06:31:42.682Z,7.95
2022-12-26T06:36:45.622Z,8.04
2022-12-26T06:41:48.748Z,8.05
2022-12-26T06:46:52.916Z,8.08
2022-12-26T06:51:55.731Z,8.25
2022-12-26T06:56:58.504Z,8.12
2022-12-26T07:02:02.718Z,8.26
2022-12-26T07:07:05.615Z,8.22
2022-12-26T07:12:08.699Z,8.07
2022-12-26T07:17:12.957Z,8.24
2022-12-26T07:22:15.706Z,8.18
2022-12-26T07:27:18.512Z,8.19
2022-12-26T07:32:23.473Z,8.09
2022-12-26T07:37:26.249Z,8.08
2022-12-26T07:42:29.001Z,7.88
2022-12-26T07:47:33.135Z,8.28
2022-12-26T07:52:36.192Z,8.21
2022-12-26T07:57:48.667Z,8.39
2022-12-26T08:02:54.320Z,8.20
2022-12-26T08:07:57.253Z,8.23
2022-12-26T08:13:00.003Z,8.38
2022-12-26T08:18:04.178Z,8.34
2022-12-26T08:23:06.959Z,8.52
2022-12-26T08:28:09.936Z,8.50
2022-12-26T08:33:14.423Z,8.42
2022-12-26T08:38:17.196Z,8.71
2022-12-26T08:43:39.060Z,8.58
2022-12-26T08:48:44.255Z,8.70
2022-12-26T08:53:49.437Z,8.83
2022-12-26T08:58:52.265Z,8.72
2022-12-26T09:03:57.740Z,8.31
2022-12-26T09:09:01.096Z,8.59
2022-12-26T09:14:04.906Z,8.77
2022-12-26T09:19:12.199Z,8.59
2022-12-26T09:24:16.601Z,8.52
2022-12-26T09:29:19.403Z,8.53
2022-12-26T09:34:23.575Z,8.81
2022-12-26T09:39:26.845Z,8.70
2022-12-26T09:44:39.102Z,8.72
2022-12-26T09:49:51.800Z,9.28
2022-12-26T09:54:55.143Z,9.22
2022-12-26T10:00:00.190Z,8.94
2022-12-26T10:05:04.916Z,9.15
2022-12-26T10:10:11.470Z,9.37
2022-12-26T10:15:28.588Z,9.48
2022-12-26T10:20:40.868Z,9.76
2022-12-26T10:25:47.233Z,10.03
2022-12-26T10:30:53.466Z,9.75
2022-12-26T10:35:58.656Z,9.26
2022-12-26T10:41:06.957Z,9.87
2022-12-26T10:46:29.409Z,9.25
2022-12-26T10:51:34.761Z,9.11
2022-12-26T10:56:37.591Z,9.22
2022-12-26T11:01:47.235Z,9.01
2022-12-26T11:06:53.417Z,9.44
2022-12-26T11:11:56.281Z,9.24
2022-12-26T11:17:03.314Z,9.50
2022-12-26T11:22:25.607Z,9.55
2022-12-26T11:27:28.498Z,9.51
2022-12-26T11:32:31.271Z,9.24
2022-12-26T11:37:43.926Z,9.08
2022-12-26T11:42:51.354Z,9.03
2022-12-26T11:47:57.178Z,9.02
2022-12-26T11:53:10.200Z,8.81
2022-12-26T11:58:21.612Z,9.01
2022-12-26T12:03:31.792Z,8.86
2022-12-26T12:08:47.012Z,9.43
2022-12-26T12:14:01.429Z,9.71
2022-12-26T12:19:17.753Z,9.63
2022-12-26T12:24:39.651Z,9.50
2022-12-26T12:30:06.811Z,9.23
2022-12-26T12:35:25.334Z,9.34
2022-12-26T12:40:38.838Z,9.48
2022-12-26T12:45:54.142Z,9.80
2022-12-26T12:51:04.333Z,9.51
2022-12-26T12:56:22.162Z,9.22
2022-12-26T13:01:29.446Z,9.24
2022-12-26T13:06:37.649Z,8.81
2022-12-26T13:11:47.117Z,8.62
2022-12-26T13:16:55.749Z,8.02
2022-12-26T13:22:04.698Z,7.64
2022-12-26T13:27:31.612Z,7.36
2022-12-26T13:32:34.731Z,7.84
2022-12-26T13:37:58.945Z,6.53
2022-12-26T13:43:28.239Z,6.61
2022-12-26T13:48:59.990Z,6.87
2022-12-26T13:54:10.303Z,7.28
2022-12-26T13:59:18.235Z,7.02
2022-12-26T14:04:42.210Z,6.31
2022-12-26T14:09:58.296Z,5.50
2022-12-26T14:15:24.296Z,5.26
2022-12-26T14:20:40.200Z,5.19
2022-12-26T14:25:53.399Z,5.30
2022-12-26T14:31:12.497Z,5.69
2022-12-26T14:36:25.127Z,5.03
2022-12-26T14:41:46.024Z,4.81
2022-12-26T14:47:00.930Z,5.31
2022-12-26T14:52:33.576Z,5.08
2022-12-26T14:57:54.913Z,4.89
2022-12-26T15:03:38.560Z,5.32
2022-12-26T15:09:02.058Z,4.98
2022-12-26T15:14:27.354Z,5.37
2022-12-26T15:19:55.172Z,5.22
2022-12-26T15:25:33.050Z,5.08
2022-12-26T15:30:53.373Z,5.36
2022-12-26T15:36:06.928Z,5.48
2022-12-26T15:41:15.362Z,5.13
2022-12-26T15:46:23.326Z,5.08
2022-12-26T15:51:39.993Z,5.17
2022-12-26T15:56:58.977Z,5.15
2022-12-26T16:02:02.592Z,5.11
2022-12-26T16:07:22.885Z,4.71
2022-12-26T16:12:28.581Z,5.06
2022-12-26T16:17:31.837Z,5.21
2022-12-26T16:22:46.684Z,5.14
2022-12-26T16:27:52.486Z,5.27
2022-12-26T16:32:56.073Z,5.25
2022-12-26T16:38:02.621Z,5.12
2022-12-26T16:43:07.334Z,5.19
2022-12-26T16:48:13.446Z,5.03
2022-12-26T16:53:19.336Z,5.07
2022-12-26T16:58:24.840Z,5.07
2022-12-26T17:03:35.667Z,4.82
2022-12-26T17:08:44.569Z,5.17
2022-12-26T17:13:52.785Z,4.74
2022-12-26T17:18:56.526Z,4.87
2022-12-26T17:24:12.535Z,4.67
2022-12-26T17:29:52.109Z,4.65
2022-12-26T17:34:55.721Z,4.62
2022-12-26T17:40:05.765Z,4.45
2022-12-26T17:45:10.984Z,5.22
2022-12-26T17:50:14.661Z,4.78
2022-12-26T17:55:21.250Z,4.75
2022-12-26T18:00:27.213Z,4.66
2022-12-26T18:05:30.024Z,4.75
2022-12-26T18:10:36.109Z,4.63
2022-12-26T18:15:38.925Z,4.54
2022-12-26T18:20:41.702Z,4.58
2022-12-26T18:25:50.253Z,4.88
2022-12-26T18:30:56.991Z,4.86
2022-12-26T18:36:04.313Z,4.81
2022-12-26T18:41:15.067Z,4.61
2022-12-26T18:46:19.455Z,4.57
2022-12-26T18:51:22.761Z,4.40
2022-12-26T18:56:26.946Z,4.23
2022-12-26T19:01:29.724Z,3.96
2022-12-26T19:06:35.216Z,4.26
2022-12-26T19:11:39.498Z,4.33
2022-12-26T19:16:42.302Z,4.07
2022-12-26T19:21:45.090Z,4.24
2022-12-26T19:26:49.332Z,4.25
2022-12-26T19:31:52.396Z,4.12
2022-12-26T19:36:55.203Z,3.79
2022-12-26T19:41:59.315Z,3.64
2022-12-26T19:47:11.949Z,3.48
2022-12-26T19:52:15.556Z,3.34
2022-12-26T19:57:21.873Z,3.71
2022-12-26T20:02:24.857Z,3.42
2022-12-26T20:07:27.763Z,3.29
2022-12-26T20:12:32.102Z,3.07
2022-12-26T20:17:35.001Z,3.24
2022-12-26T20:22:37.827Z,2.96
2022-12-26T20:27:42.108Z,2.97
2022-12-26T20:32:47.230Z,2.55
2022-12-26T20:37:50.096Z,2.70
2022-12-26T20:42:54.242Z,2.87
2022-12-26T20:47:57.029Z,2.68
2022-12-26T20:52:59.820Z,2.88
2022-12-26T20:58:04.331Z,2.75
2022-12-26T21:03:07.201Z,2.66
2022-12-26T21:08:10.041Z,2.58
2022-12-26T21:13:14.459Z,2.36
2022-12-26T21:18:17.312Z,2.42
2022-12-26T21:23:20.075Z,2.42
2022-12-26T21:28:24.226Z,2.46
2022-12-26T21:33:27.165Z,2.45
2022-12-26T21:38:31.488Z,2.34
2022-12-26T21:43:36.061Z,2.28
2022-12-26T21:48:39.604Z,1.93
2022-12-26T21:53:42.629Z,1.48
2022-12-26T21:59:04.135Z,1.31
2022-12-26T22:04:23.645Z,1.59
2022-12-26T22:09:26.609Z,1.49
2022-12-26T22:14:31.365Z,1.92
2022-12-26T22:19:34.134Z,1.68
2022-12-26T22:24:36.887Z,1.68
2022-12-26T22:29:41.011Z,1.75
2022-12-26T22:34:43.854Z,1.85
2022-12-26T22:39:46.674Z,1.62
2022-12-26T22:44:50.807Z,1.86
2022-12-26T22:49:53.694Z,1.64
2022-12-26T22:54:56.462Z,1.76
2022-12-26T23:00:09.709Z,1.86
2022-12-26T23:05:14.606Z,1.77
2022-12-26T23:10:21.520Z,1.69
2022-12-26T23:15:28.103Z,1.75
2022-12-26T23:20:53.790Z,1.57
2022-12-26T23:26:00.094Z,1.69
2022-12-26T23:31:04.897Z,1.67
2022-12-26T23:36:08.773Z,1.66
2022-12-26T23:41:11.625Z,1.68
2022-12-26T23:46:15.852Z,1.34
2022-12-26T23:51:18.696Z,1.50
2022-12-26T23:56:21.460Z,1.56
